Time;durP1;ratioP1;P1;durP2;ratioP2;P2;SDS_P1;SDS_P2;PMS_P1;PMS_P2;Temp;Humidity;BMP_temperature;BMP_pressure;BME280_temperature;BME280_humidity;BME280_pressure;Samples;Min_cycle;Max_cycle;Signal;HPM_P1;HPM_P2
2021/01/09 00:01:38;;;;;;;11.20;5.65;;;4.00;99.90;;;;;;5053074;28;20293;-71
2021/01/09 00:04:05;;;;;;;11.00;4.93;;;4.00;99.90;;;;;;5053384;28;20281;-71
2021/01/09 00:06:36;;;;;;;12.70;5.18;;;3.90;99.90;;;;;;5052163;28;20203;-71
2021/01/09 00:09:02;;;;;;;8.43;5.13;;;4.00;99.90;;;;;;5052379;28;20219;-72
2021/01/09 00:11:30;;;;;;;10.13;4.45;;;4.00;99.90;;;;;;5056494;28;20679;-71
2021/01/09 00:13:56;;;;;;;9.55;5.20;;;4.00;99.90;;;;;;5056644;28;20570;-72
2021/01/09 00:16:23;;;;;;;10.73;4.70;;;4.00;99.90;;;;;;5056105;28;20221;-71
2021/01/09 00:18:50;;;;;;;10.35;5.45;;;4.10;99.90;;;;;;5056296;28;20325;-71
2021/01/09 00:21:17;;;;;;;11.52;5.45;;;4.00;99.90;;;;;;5057327;28;20741;-71
2021/01/09 00:23:43;;;;;;;9.88;4.43;;;4.10;99.90;;;;;;5056309;28;20199;-72
2021/01/09 00:26:09;;;;;;;10.05;5.05;;;4.00;99.90;;;;;;5056186;28;20207;-71
2021/01/09 00:28:36;;;;;;;9.35;5.03;;;3.90;99.90;;;;;;5055889;28;20245;-72
2021/01/09 00:31:02;;;;;;;9.73;5.15;;;3.90;99.90;;;;;;5056368;28;20209;-71
2021/01/09 00:33:29;;;;;;;10.07;5.20;;;3.90;99.90;;;;;;5056028;28;20223;-71
2021/01/09 00:35:58;;;;;;;8.98;5.60;;;3.90;99.90;;;;;;5055664;28;20214;-72
2021/01/09 00:38:24;;;;;;;10.23;4.55;;;3.90;99.90;;;;;;5055819;28;20701;-71
2021/01/09 00:40:50;;;;;;;10.25;6.13;;;4.00;99.90;;;;;;5056058;28;20203;-71
2021/01/09 00:43:17;;;;;;;10.00;4.68;;;4.00;99.90;;;;;;5056134;28;20286;-71
2021/01/09 00:45:43;;;;;;;7.45;4.57;;;4.10;99.90;;;;;;5055682;28;20285;-71
2021/01/09 00:48:10;;;;;;;9.85;5.45;;;4.10;99.90;;;;;;5055345;28;20631;-70
2021/01/09 00:50:37;;;;;;;9.35;5.75;;;3.90;99.90;;;;;;5055370;28;20740;-69
2021/01/09 00:53:03;;;;;;;7.15;4.85;;;3.90;99.90;;;;;;5056043;28;20314;-70
2021/01/09 00:55:29;;;;;;;8.85;4.93;;;4.00;99.90;;;;;;5055501;28;20298;-72
2021/01/09 00:57:56;;;;;;;11.43;5.22;;;3.90;99.90;;;;;;5055240;28;20322;-71
2021/01/09 01:00:22;;;;;;;10.55;4.88;;;4.00;99.90;;;;;;5055376;28;20294;-71
2021/01/09 01:02:49;;;;;;;8.65;5.10;;;4.10;99.90;;;;;;5055376;28;20204;-70
2021/01/09 01:05:15;;;;;;;10.15;6.00;;;4.20;99.90;;;;;;5055111;28;20302;-71
2021/01/09 01:07:43;;;;;;;10.63;5.32;;;4.20;99.90;;;;;;5054750;28;20207;-70
2021/01/09 01:10:10;;;;;;;11.20;5.10;;;4.20;99.90;;;;;;5054978;28;20574;-70
2021/01/09 01:12:36;;;;;;;7.63;4.88;;;4.20;99.90;;;;;;5055217;28;20841;-69
2021/01/09 01:15:04;;;;;;;8.85;4.75;;;4.20;99.90;;;;;;5055056;28;20776;-70
2021/01/09 01:17:31;;;;;;;9.57;5.80;;;4.30;99.90;;;;;;5054484;28;20211;-70
2021/01/09 01:19:57;;;;;;;5.60;4.03;;;4.30;99.90;;;;;;5054875;28;20776;-70
2021/01/09 01:22:23;;;;;;;8.65;5.10;;;4.30;99.90;;;;;;5055485;28;20203;-71
2021/01/09 01:24:50;;;;;;;9.65;5.35;;;4.20;99.90;;;;;;5056827;28;20304;-71
2021/01/09 01:27:17;;;;;;;10.93;5.88;;;4.10;99.90;;;;;;5055585;28;20302;-71
2021/01/09 01:29:43;;;;;;;11.10;5.13;;;4.20;99.90;;;;;;5056238;28;20311;-71
2021/01/09 01:32:09;;;;;;;10.63;5.00;;;4.10;99.90;;;;;;5055309;28;20666;-74
2021/01/09 01:34:36;;;;;;;9.73;5.05;;;4.10;99.90;;;;;;5055022;28;20227;-70
2021/01/09 01:37:02;;;;;;;10.50;5.40;;;4.10;99.90;;;;;;5054429;28;20206;-71
2021/01/09 01:39:28;;;;;;;10.90;6.00;;;4.10;99.90;;;;;;5054450;28;20708;-70
2021/01/09 01:41:57;;;;;;;9.13;6.45;;;3.90;99.90;;;;;;5054918;28;20264;-70
2021/01/09 01:44:23;;;;;;;10.02;5.55;;;3.80;99.90;;;;;;5054639;28;20202;-69
2021/01/09 01:46:50;;;;;;;12.57;5.88;;;3.60;99.90;;;;;;5054117;28;20216;-72
2021/01/09 01:49:16;;;;;;;10.38;5.55;;;3.60;99.90;;;;;;5054241;28;20728;-70
2021/01/09 01:51:43;;;;;;;10.27;5.32;;;3.70;99.90;;;;;;5054677;28;20207;-70
2021/01/09 01:54:10;;;;;;;9.57;6.18;;;3.80;99.90;;;;;;5054467;28;20245;-69
2021/01/09 01:56:36;;;;;;;12.23;5.80;;;4.00;99.90;;;;;;5054194;28;20211;-69
2021/01/09 01:59:03;;;;;;;13.63;5.25;;;4.00;99.90;;;;;;5054095;28;20315;-70
2021/01/09 02:01:32;;;;;;;11.25;5.20;;;4.00;99.90;;;;;;5054290;28;20204;-70
2021/01/09 02:03:59;;;;;;;14.65;6.95;;;4.00;99.90;;;;;;5054540;28;20206;-70
2021/01/09 02:06:28;;;;;;;12.95;6.55;;;3.80;99.90;;;;;;5053846;28;20210;-70
2021/01/09 02:09:03;;;;;;;11.88;6.75;;;3.70;99.90;;;;;;5054145;28;20276;-70
2021/01/09 02:11:36;;;;;;;14.32;6.80;;;3.60;99.90;;;;;;5054166;28;20207;-70
2021/01/09 02:14:08;;;;;;;12.63;6.25;;;3.60;99.90;;;;;;5054013;28;20616;-71
2021/01/09 02:16:35;;;;;;;13.82;6.38;;;3.60;99.90;;;;;;5053826;28;20264;-70
2021/01/09 02:19:03;;;;;;;13.13;7.15;;;3.50;99.90;;;;;;5054054;28;20230;-70
2021/01/09 02:21:37;;;;;;;10.13;7.05;;;3.50;99.90;;;;;;5053927;28;20207;-70
2021/01/09 02:24:11;;;;;;;12.52;7.15;;;3.70;99.90;;;;;;5053982;28;20662;-69
2021/01/09 02:26:38;;;;;;;10.32;7.22;;;3.80;99.90;;;;;;5053253;28;20639;-68
2021/01/09 02:29:04;;;;;;;15.90;7.13;;;3.80;99.90;;;;;;5053617;28;20314;-70
2021/01/09 02:31:39;;;;;;;16.90;6.70;;;3.90;99.90;;;;;;5053872;28;20290;-70
2021/01/09 02:34:09;;;;;;;12.05;6.40;;;3.90;99.90;;;;;;5052869;28;20750;-69
2021/01/09 02:36:36;;;;;;;15.98;7.80;;;3.70;99.90;;;;;;5053331;28;20297;-71
2021/01/09 02:39:03;;;;;;;10.68;6.40;;;3.60;99.90;;;;;;5053148;28;20305;-70
2021/01/09 02:41:34;;;;;;;17.77;7.15;;;3.60;99.90;;;;;;5053456;28;20204;-71
2021/01/09 02:44:06;;;;;;;9.98;6.32;;;3.50;99.90;;;;;;5053616;28;20205;-71
2021/01/09 02:46:32;;;;;;;13.65;8.05;;;3.50;99.90;;;;;;5052982;28;20210;-72
2021/01/09 02:48:59;;;;;;;18.42;6.80;;;3.30;99.90;;;;;;5053035;28;20430;-71
2021/01/09 02:51:25;;;;;;;12.43;6.43;;;3.30;99.90;;;;;;5053215;28;20294;-71
2021/01/09 02:53:51;;;;;;;11.07;5.78;;;3.40;99.90;;;;;;5053426;28;20222;-71
2021/01/09 02:56:18;;;;;;;14.52;7.40;;;3.40;99.90;;;;;;5052958;28;20306;-70
2021/01/09 02:58:45;;;;;;;15.50;6.78;;;3.50;99.90;;;;;;5052929;28;20230;-70
2021/01/09 03:01:11;;;;;;;13.68;7.00;;;3.40;99.90;;;;;;5053184;28;20207;-71
2021/01/09 03:03:38;;;;;;;16.52;7.47;;;3.50;99.90;;;;;;5053087;28;20229;-71
2021/01/09 03:06:04;;;;;;;12.27;6.63;;;3.70;99.90;;;;;;5052573;28;20207;-71
2021/01/09 03:08:30;;;;;;;10.30;6.03;;;3.80;99.90;;;;;;5053044;28;20250;-72
2021/01/09 03:10:57;;;;;;;13.10;8.00;;;3.90;99.90;;;;;;5052878;28;20294;-72
2021/01/09 03:13:23;;;;;;;13.27;7.00;;;4.00;99.90;;;;;;5053026;28;20219;-76
2021/01/09 03:15:50;;;;;;;15.18;7.25;;;4.00;99.90;;;;;;5052638;28;20711;-75
2021/01/09 03:18:17;;;;;;;14.63;7.13;;;3.80;99.90;;;;;;5052669;28;20315;-74
2021/01/09 03:20:43;;;;;;;14.00;6.93;;;3.70;99.90;;;;;;5054347;28;20290;-73
2021/01/09 03:23:09;;;;;;;14.68;7.07;;;3.50;99.90;;;;;;5054380;28;20238;-75
2021/01/09 03:25:36;;;;;;;13.00;6.72;;;3.50;99.90;;;;;;5055721;28;20235;-75
2021/01/09 03:28:02;;;;;;;13.43;7.35;;;3.60;99.90;;;;;;5054463;28;20298;-71
2021/01/09 03:30:28;;;;;;;15.90;7.78;;;3.70;99.90;;;;;;5052678;28;20208;-70
2021/01/09 03:32:55;;;;;;;15.80;7.75;;;3.60;99.90;;;;;;5052646;28;20673;-71
2021/01/09 03:35:22;;;;;;;15.32;8.15;;;3.40;99.90;;;;;;5052386;28;20210;-71
2021/01/09 03:37:49;;;;;;;18.70;8.00;;;3.20;99.90;;;;;;5052110;28;20204;-71
2021/01/09 03:40:15;;;;;;;16.13;7.80;;;3.20;99.90;;;;;;5052576;28;20233;-71
2021/01/09 03:42:41;;;;;;;18.33;7.65;;;3.20;99.90;;;;;;5052597;28;20692;-71
2021/01/09 03:45:09;;;;;;;18.70;7.63;;;3.30;99.90;;;;;;5052210;28;20294;-71
2021/01/09 03:47:35;;;;;;;16.70;7.50;;;3.40;99.90;;;;;;5051808;28;20726;-72
2021/01/09 03:50:03;;;;;;;17.77;7.85;;;3.20;99.90;;;;;;5052340;28;20232;-70
2021/01/09 03:52:30;;;;;;;18.27;7.53;;;3.20;99.90;;;;;;5052622;28;20203;-71
2021/01/09 03:54:56;;;;;;;14.00;6.60;;;3.20;99.90;;;;;;5052383;28;20272;-71
2021/01/09 03:57:22;;;;;;;15.73;7.80;;;3.20;99.90;;;;;;5051966;28;20424;-71
2021/01/09 03:59:49;;;;;;;15.25;7.45;;;3.30;99.90;;;;;;5052418;28;20220;-71
2021/01/09 04:02:15;;;;;;;17.25;8.93;;;3.20;99.90;;;;;;5052307;28;20200;-71
2021/01/09 04:04:42;;;;;;;15.02;7.63;;;3.20;99.90;;;;;;5052820;28;20213;-75
2021/01/09 04:07:09;;;;;;;15.18;7.35;;;3.10;99.90;;;;;;5054879;28;20266;-74
2021/01/09 04:09:35;;;;;;;18.40;7.18;;;3.00;99.90;;;;;;5054630;28;20227;-73
2021/01/09 04:12:02;;;;;;;16.65;8.32;;;3.00;99.90;;;;;;5054956;28;20231;-74
2021/01/09 04:14:28;;;;;;;14.35;6.57;;;3.00;99.90;;;;;;5055079;28;20223;-73
2021/01/09 04:16:55;;;;;;;20.83;8.90;;;3.10;99.90;;;;;;5054022;28;20550;-74
2021/01/09 04:19:21;;;;;;;17.33;8.73;;;3.00;99.90;;;;;;5055280;28;20310;-74
2021/01/09 04:21:51;;;;;;;13.43;7.18;;;3.10;99.90;;;;;;5055812;28;20293;-74
2021/01/09 04:24:19;;;;;;;16.85;7.38;;;3.20;99.90;;;;;;5055490;28;20223;-74
2021/01/09 04:26:51;;;;;;;15.88;8.40;;;3.30;99.90;;;;;;5053362;28;20662;-73
2021/01/09 04:29:18;;;;;;;17.50;8.70;;;3.40;99.90;;;;;;5054733;28;20219;-73
2021/01/09 04:31:44;;;;;;;17.92;7.97;;;3.40;99.90;;;;;;5055075;28;20243;-74
2021/01/09 04:34:10;;;;;;;13.85;7.00;;;3.30;99.90;;;;;;5054646;28;20644;-74
2021/01/09 04:36:37;;;;;;;12.38;6.88;;;3.20;99.90;;;;;;5054118;28;20242;-72
2021/01/09 04:39:04;;;;;;;18.50;7.28;;;3.10;99.90;;;;;;5054792;28;20286;-74
2021/01/09 04:41:34;;;;;;;17.40;7.40;;;3.00;99.90;;;;;;5054523;28;20234;-72
2021/01/09 04:44:00;;;;;;;13.13;7.55;;;3.00;99.90;;;;;;5054851;28;20218;-74
2021/01/09 04:46:27;;;;;;;12.70;6.88;;;2.90;99.90;;;;;;5054873;28;20203;-72
2021/01/09 04:48:54;;;;;;;16.00;8.38;;;3.00;99.90;;;;;;5055387;28;20295;-72
2021/01/09 04:51:21;;;;;;;18.50;7.85;;;3.10;99.90;;;;;;5055523;28;20294;-72
2021/01/09 04:53:48;;;;;;;15.05;7.63;;;3.10;99.90;;;;;;5054957;28;20272;-72
2021/01/09 04:56:14;;;;;;;15.35;6.95;;;3.10;99.90;;;;;;5056114;28;20700;-71
2021/01/09 04:58:42;;;;;;;16.30;7.20;;;3.00;99.90;;;;;;5058336;28;20314;-71
2021/01/09 05:01:08;;;;;;;15.48;7.60;;;3.10;99.90;;;;;;5058094;28;20294;-71
2021/01/09 05:03:34;;;;;;;17.98;8.73;;;3.20;99.90;;;;;;5058353;28;20290;-72
2021/01/09 05:06:01;;;;;;;20.17;8.95;;;3.20;99.90;;;;;;5057200;28;20207;-71
2021/01/09 05:08:27;;;;;;;19.02;7.85;;;3.30;99.90;;;;;;5057042;28;20314;-72
2021/01/09 05:10:53;;;;;;;17.25;8.43;;;3.40;99.90;;;;;;5057049;28;20225;-72
2021/01/09 05:13:22;;;;;;;19.73;7.82;;;3.30;99.90;;;;;;5056587;28;20210;-71
2021/01/09 05:15:49;;;;;;;13.07;7.35;;;3.20;99.90;;;;;;5056417;28;20253;-71
2021/01/09 05:18:17;;;;;;;17.52;8.68;;;3.10;99.90;;;;;;5056241;28;20589;-71
2021/01/09 05:20:43;;;;;;;19.88;8.68;;;3.20;99.90;;;;;;5056977;28;20200;-72
2021/01/09 05:23:11;;;;;;;17.25;8.55;;;3.30;99.90;;;;;;5056805;28;20229;-72
2021/01/09 05:25:37;;;;;;;19.00;8.52;;;3.50;99.90;;;;;;5057575;28;20302;-71
2021/01/09 05:28:06;;;;;;;17.02;9.38;;;3.60;99.90;;;;;;5057364;28;20214;-72
2021/01/09 05:30:32;;;;;;;19.55;8.27;;;3.70;99.90;;;;;;5057545;28;20210;-72
2021/01/09 05:33:01;;;;;;;17.52;8.45;;;3.80;99.90;;;;;;5056838;28;20203;-71
2021/01/09 05:35:29;;;;;;;17.95;8.52;;;3.60;99.90;;;;;;5055929;28;20273;-71
2021/01/09 05:37:56;;;;;;;16.70;7.97;;;3.70;99.90;;;;;;5056902;28;20207;-71
2021/01/09 05:40:22;;;;;;;14.25;7.50;;;3.60;99.90;;;;;;5056602;28;20658;-72
2021/01/09 05:42:51;;;;;;;12.80;6.75;;;3.70;99.90;;;;;;5056337;28;20211;-72
2021/01/09 05:45:18;;;;;;;18.15;8.57;;;3.80;99.90;;;;;;5055649;28;20199;-71
2021/01/09 05:47:45;;;;;;;16.27;7.68;;;3.70;99.90;;;;;;5056304;28;20203;-71
2021/01/09 05:50:14;;;;;;;16.83;8.45;;;3.60;99.90;;;;;;5056962;28;20227;-72
2021/01/09 05:52:41;;;;;;;18.65;9.68;;;3.70;99.90;;;;;;5056080;28;20234;-72
2021/01/09 05:55:08;;;;;;;19.80;8.25;;;3.60;99.90;;;;;;5055832;28;20230;-71
2021/01/09 05:57:36;;;;;;;18.70;7.97;;;3.40;99.90;;;;;;5055539;28;20217;-71
2021/01/09 06:00:06;;;;;;;15.57;8.27;;;3.50;99.90;;;;;;5055828;28;20755;-71
2021/01/09 06:02:47;;;;;;;19.05;8.77;;;3.50;99.90;;;;;;5056417;28;20209;-71
2021/01/09 06:05:15;;;;;;;14.57;8.13;;;3.50;99.90;;;;;;5056433;28;20206;-72
2021/01/09 06:07:46;;;;;;;17.73;8.30;;;3.60;99.90;;;;;;5056653;28;20204;-71
2021/01/09 06:10:16;;;;;;;16.38;7.03;;;3.50;99.90;;;;;;5056996;28;20224;-72
2021/01/09 06:12:55;;;;;;;19.05;8.45;;;3.30;99.90;;;;;;5056424;28;20665;-72
2021/01/09 06:15:24;;;;;;;16.45;7.85;;;3.30;99.90;;;;;;5057059;28;20227;-72
2021/01/09 06:17:52;;;;;;;20.23;9.50;;;3.30;99.90;;;;;;5056890;28;20203;-71
2021/01/09 06:20:19;;;;;;;13.93;7.55;;;3.30;99.90;;;;;;5056647;28;20241;-72
2021/01/09 06:22:46;;;;;;;15.27;8.10;;;3.20;99.90;;;;;;5055256;28;20282;-72
2021/01/09 06:25:13;;;;;;;15.68;7.85;;;3.20;99.90;;;;;;5056702;28;20290;-72
2021/01/09 06:27:42;;;;;;;18.33;9.07;;;3.10;99.90;;;;;;5056366;28;20329;-72
2021/01/09 06:30:10;;;;;;;26.25;9.90;;;3.20;99.90;;;;;;5056889;28;20223;-72
2021/01/09 06:32:39;;;;;;;14.90;8.57;;;3.30;99.90;;;;;;5056561;28;20214;-72
2021/01/09 06:35:07;;;;;;;14.40;7.68;;;3.30;99.90;;;;;;5056878;28;20318;-72
2021/01/09 06:37:35;;;;;;;17.13;8.48;;;3.30;99.90;;;;;;5056622;28;20565;-72
2021/01/09 06:40:03;;;;;;;18.30;8.45;;;3.20;99.90;;;;;;5056660;28;20224;-72
2021/01/09 06:42:32;;;;;;;18.63;8.07;;;3.10;99.90;;;;;;5056336;28;20249;-72
2021/01/09 06:45:01;;;;;;;17.55;8.30;;;3.00;99.90;;;;;;5056141;28;20221;-72
2021/01/09 06:47:29;;;;;;;20.50;8.90;;;3.00;99.90;;;;;;5056363;28;20341;-71
2021/01/09 06:49:56;;;;;;;17.42;8.73;;;2.90;99.90;;;;;;5056016;28;20226;-72
2021/01/09 06:52:23;;;;;;;15.32;8.25;;;2.80;99.90;;;;;;5056070;28;20213;-72
2021/01/09 06:54:51;;;;;;;22.95;9.63;;;2.90;99.90;;;;;;5056305;28;20309;-72
2021/01/09 06:57:19;;;;;;;14.70;8.10;;;3.00;99.90;;;;;;5055888;28;20677;-71
2021/01/09 06:59:47;;;;;;;22.83;11.00;;;2.90;99.90;;;;;;5055834;28;20614;-72
2021/01/09 07:02:24;;;;;;;20.15;9.15;;;3.00;99.90;;;;;;5055901;28;20214;-72
2021/01/09 07:05:01;;;;;;;27.42;9.60;;;2.90;99.90;;;;;;5055988;28;20199;-72
2021/01/09 07:07:35;;;;;;;15.43;7.18;;;2.90;99.90;;;;;;5055345;28;20310;-71
2021/01/09 07:10:14;;;;;;;22.17;9.10;;;2.90;99.90;;;;;;5054749;28;20231;-72
2021/01/09 07:12:42;;;;;;;19.00;8.55;;;2.90;99.90;;;;;;5054616;28;20213;-72
2021/01/09 07:15:10;;;;;;;22.20;9.90;;;3.00;99.90;;;;;;5054869;28;20223;-72
2021/01/09 07:17:39;;;;;;;18.40;8.35;;;3.00;99.90;;;;;;5054384;28;20210;-71
2021/01/09 07:20:07;;;;;;;19.75;10.00;;;3.10;99.90;;;;;;5055058;28;20557;-72
2021/01/09 07:22:38;;;;;;;18.30;8.40;;;3.10;99.90;;;;;;5055140;28;20231;-72
2021/01/09 07:25:07;;;;;;;21.83;10.85;;;3.00;99.90;;;;;;5055197;28;20252;-72
2021/01/09 07:27:39;;;;;;;19.73;8.50;;;2.90;99.90;;;;;;5054400;28;20222;-72
2021/01/09 07:30:13;;;;;;;19.55;8.63;;;3.00;99.90;;;;;;5054405;28;20243;-71
2021/01/09 07:32:43;;;;;;;19.95;8.80;;;3.10;99.90;;;;;;5054693;28;20203;-72
2021/01/09 07:35:10;;;;;;;16.48;8.98;;;3.20;99.90;;;;;;5054134;28;20677;-72
2021/01/09 07:37:42;;;;;;;15.20;8.35;;;3.20;99.90;;;;;;5054195;28;20207;-71
2021/01/09 07:40:13;;;;;;;18.02;9.27;;;3.30;99.90;;;;;;5054454;28;20314;-72
2021/01/09 07:42:41;;;;;;;19.40;8.80;;;3.30;99.90;;;;;;5055494;28;20210;-72
2021/01/09 07:45:09;;;;;;;21.33;9.57;;;3.30;99.90;;;;;;5055086;28;20200;-72
2021/01/09 07:47:44;;;;;;;20.75;10.00;;;3.30;99.90;;;;;;5053848;28;20207;-71
2021/01/09 07:50:12;;;;;;;16.92;8.35;;;3.50;99.90;;;;;;5054396;28;20218;-72
2021/01/09 07:52:40;;;;;;;22.90;9.15;;;3.60;99.90;;;;;;5054743;28;20290;-72
2021/01/09 07:55:07;;;;;;;21.00;8.70;;;3.60;99.90;;;;;;5055004;28;20588;-72
2021/01/09 07:57:34;;;;;;;22.73;10.13;;;3.70;99.90;;;;;;5054782;28;20211;-71
2021/01/09 08:00:11;;;;;;;19.85;10.77;;;3.80;99.90;;;;;;5054312;28;20231;-72
2021/01/09 08:02:38;;;;;;;22.20;9.93;;;3.80;99.90;;;;;;5054675;28;20214;-72
2021/01/09 08:05:08;;;;;;;20.98;9.55;;;3.90;99.90;;;;;;5055815;28;20668;-72
2021/01/09 08:07:37;;;;;;;21.15;9.10;;;3.90;99.90;;;;;;5055756;28;20573;-71
2021/01/09 08:10:17;;;;;;;16.45;9.75;;;3.80;99.90;;;;;;5055913;28;20219;-72
2021/01/09 08:12:44;;;;;;;16.88;8.27;;;3.80;99.90;;;;;;5055092;28;20199;-72
2021/01/09 08:15:13;;;;;;;19.45;8.57;;;3.70;99.90;;;;;;5055361;28;20257;-72
2021/01/09 08:17:39;;;;;;;16.98;8.68;;;3.60;99.90;;;;;;5054961;28;20210;-71
2021/01/09 08:20:10;;;;;;;21.15;10.32;;;3.50;99.90;;;;;;5055157;28;20586;-72
2021/01/09 08:22:37;;;;;;;19.42;9.02;;;3.50;99.90;;;;;;5055090;28;20203;-72
2021/01/09 08:25:11;;;;;;;20.23;9.95;;;3.50;99.90;;;;;;5055359;28;20203;-72
2021/01/09 08:27:45;;;;;;;21.77;10.00;;;3.40;99.90;;;;;;5054691;28;20207;-71
2021/01/09 08:30:15;;;;;;;19.80;8.60;;;3.10;99.90;;;;;;5054610;28;20310;-72
2021/01/09 08:32:41;;;;;;;23.35;11.90;;;3.00;99.90;;;;;;5058908;28;20298;-72
2021/01/09 08:35:10;;;;;;;17.88;9.27;;;3.00;99.90;;;;;;5058391;28;20230;-72
2021/01/09 08:37:36;;;;;;;25.23;14.20;;;3.10;99.90;;;;;;5058039;28;20213;-71
2021/01/09 08:40:14;;;;;;;29.17;12.52;;;3.10;99.90;;;;;;5058551;28;20607;-72
2021/01/09 08:43:01;;;;;;;23.92;11.13;;;3.20;99.90;;;;;;5058699;28;20207;-72
2021/01/09 08:45:50;;;;;;;19.88;10.40;;;3.30;99.90;;;;;;5058371;28;20244;-72
2021/01/09 08:48:19;;;;;;;22.33;10.98;;;3.30;99.90;;;;;;5057763;28;20288;-72
2021/01/09 08:51:04;;;;;;;23.85;9.60;;;3.30;99.90;;;;;;5058522;28;20213;-72
2021/01/09 08:53:44;;;;;;;18.35;8.55;;;3.30;99.90;;;;;;5058264;28;20290;-72
2021/01/09 08:56:11;;;;;;;24.83;9.25;;;3.20;99.90;;;;;;5057453;28;20730;-71
2021/01/09 08:58:39;;;;;;;17.98;8.02;;;3.20;99.90;;;;;;5057956;28;20286;-72
2021/01/09 09:01:10;;;;;;;20.40;10.18;;;3.00;99.90;;;;;;5058207;28;20234;-72
2021/01/09 09:03:42;;;;;;;18.45;9.13;;;3.00;99.90;;;;;;5058021;28;20218;-72
2021/01/09 09:06:10;;;;;;;20.95;9.13;;;2.90;99.90;;;;;;5057657;28;20203;-71
2021/01/09 09:08:37;;;;;;;23.27;8.20;;;2.90;99.90;;;;;;5057250;28;20709;-72
2021/01/09 09:11:04;;;;;;;19.50;8.80;;;3.10;99.90;;;;;;5056982;28;20206;-72
2021/01/09 09:13:30;;;;;;;13.80;8.50;;;3.20;99.90;;;;;;5057209;28;20261;-72
2021/01/09 09:15:57;;;;;;;24.83;9.10;;;3.10;99.90;;;;;;5056942;28;20299;-71
2021/01/09 09:18:33;;;;;;;26.17;10.13;;;3.20;99.90;;;;;;5056723;28;20229;-72
2021/01/09 09:20:59;;;;;;;20.67;8.95;;;3.40;99.90;;;;;;5056772;28;20183;-72
2021/01/09 09:23:27;;;;;;;17.42;8.70;;;3.40;99.90;;;;;;5056944;28;20290;-71
2021/01/09 09:26:08;;;;;;;22.88;8.50;;;3.30;99.90;;;;;;5056928;28;20208;-71
2021/01/09 09:28:45;;;;;;;17.88;9.20;;;3.10;99.90;;;;;;5057338;28;20314;-71
2021/01/09 09:31:26;;;;;;;21.73;10.13;;;2.90;99.90;;;;;;5058593;28;20261;-72
2021/01/09 09:34:05;;;;;;;19.13;9.30;;;2.70;99.90;;;;;;5057312;28;20332;-71
2021/01/09 09:36:34;;;;;;;19.23;7.82;;;2.80;99.90;;;;;;5057088;28;20650;-71
2021/01/09 09:39:14;;;;;;;25.67;11.50;;;2.90;99.90;;;;;;5057426;28;20224;-72
2021/01/09 09:41:54;;;;;;;21.35;9.90;;;2.80;99.90;;;;;;5057651;28;20536;-72
2021/01/09 09:44:22;;;;;;;17.23;7.50;;;2.80;99.90;;;;;;5057017;28;20200;-72
2021/01/09 09:46:51;;;;;;;27.65;9.30;;;2.60;99.90;;;;;;5057178;28;20199;-71
2021/01/09 09:49:18;;;;;;;27.48;10.25;;;2.50;99.90;;;;;;5056941;28;20329;-72
2021/01/09 09:51:44;;;;;;;24.67;10.85;;;2.60;99.90;;;;;;5057265;28;20260;-72
2021/01/09 09:54:11;;;;;;;18.63;8.57;;;2.60;99.90;;;;;;5057037;28;20384;-72
2021/01/09 09:56:39;;;;;;;22.60;9.23;;;2.60;99.90;;;;;;5056605;28;20765;-71
2021/01/09 09:59:07;;;;;;;18.45;8.52;;;2.60;99.90;;;;;;5056455;28;20318;-72
2021/01/09 10:01:33;;;;;;;21.80;9.60;;;2.80;99.90;;;;;;5056283;28;20252;-72
2021/01/09 10:04:02;;;;;;;18.38;8.07;;;2.90;99.90;;;;;;5055957;28;20199;-72
2021/01/09 10:06:36;;;;;;;17.58;9.48;;;3.00;99.90;;;;;;5055569;28;20200;-71
2021/01/09 10:09:10;;;;;;;13.35;7.88;;;3.00;99.90;;;;;;5056042;28;20738;-72
2021/01/09 10:11:37;;;;;;;16.63;7.00;;;2.90;99.90;;;;;;5055871;28;20230;-72
2021/01/09 10:14:04;;;;;;;17.40;7.18;;;3.10;99.90;;;;;;5055574;28;20658;-72
2021/01/09 10:16:30;;;;;;;12.93;7.13;;;3.30;99.90;;;;;;5055518;28;20295;-71
2021/01/09 10:18:57;;;;;;;14.10;6.60;;;3.40;99.90;;;;;;5055777;28;20231;-72
2021/01/09 10:21:27;;;;;;;16.30;8.35;;;3.50;99.90;;;;;;5056479;28;20592;-72
2021/01/09 10:23:54;;;;;;;19.92;7.82;;;3.50;99.90;;;;;;5055781;28;20208;-72
2021/01/09 10:26:27;;;;;;;13.80;9.00;;;3.50;99.90;;;;;;5055743;28;20249;-71
2021/01/09 10:28:54;;;;;;;15.02;7.35;;;3.50;99.90;;;;;;5056011;28;20227;-72
2021/01/09 10:31:28;;;;;;;14.68;7.40;;;3.60;99.90;;;;;;5055404;28;20207;-72
2021/01/09 10:33:55;;;;;;;15.15;5.57;;;3.70;99.90;;;;;;5055797;28;20284;-72
2021/01/09 10:36:25;;;;;;;18.42;7.50;;;3.80;99.90;;;;;;5054817;28;20674;-71
2021/01/09 10:38:52;;;;;;;17.92;8.00;;;3.90;99.90;;;;;;5056319;28;20223;-72
2021/01/09 10:41:19;;;;;;;12.93;6.60;;;3.90;99.90;;;;;;5055729;28;20207;-73
2021/01/09 10:43:45;;;;;;;14.23;6.30;;;4.00;99.90;;;;;;5055456;28;20297;-74
2021/01/09 10:46:18;;;;;;;14.27;7.55;;;4.10;99.90;;;;;;5054942;28;20203;-73
2021/01/09 10:48:44;;;;;;;20.77;8.60;;;4.30;99.90;;;;;;5055629;28;20792;-74
2021/01/09 10:51:13;;;;;;;24.05;9.77;;;4.40;99.90;;;;;;5055613;28;20203;-73
2021/01/09 10:53:40;;;;;;;17.95;8.73;;;4.30;99.90;;;;;;5055130;28;20229;-73
2021/01/09 10:56:06;;;;;;;14.82;7.43;;;4.40;99.90;;;;;;5055741;28;20275;-72
2021/01/09 10:58:33;;;;;;;16.77;7.95;;;4.60;99.90;;;;;;5055851;28;20310;-73
2021/01/09 11:01:00;;;;;;;17.75;8.20;;;4.70;99.90;;;;;;5056376;28;20661;-73
2021/01/09 11:03:26;;;;;;;15.48;8.60;;;4.80;99.90;;;;;;5055673;28;20298;-73
2021/01/09 11:05:52;;;;;;;17.35;7.88;;;5.00;99.90;;;;;;5055936;28;20206;-73
2021/01/09 11:08:19;;;;;;;13.13;7.47;;;5.10;99.90;;;;;;5056604;28;20318;-73
2021/01/09 11:10:45;;;;;;;15.20;6.95;;;5.00;99.90;;;;;;5056603;28;20203;-73
2021/01/09 11:13:11;;;;;;;16.15;7.32;;;5.00;99.90;;;;;;5056144;28;20705;-73
2021/01/09 11:15:43;;;;;;;19.30;7.28;;;4.70;99.90;;;;;;5056089;28;20315;-72
2021/01/09 11:18:09;;;;;;;18.35;8.23;;;4.70;99.90;;;;;;5056221;28;20203;-73
2021/01/09 11:20:36;;;;;;;11.57;6.20;;;4.80;99.90;;;;;;5056073;28;20202;-72
2021/01/09 11:23:02;;;;;;;15.95;6.85;;;4.80;99.90;;;;;;5070193;28;20683;-73
2021/01/09 11:25:28;;;;;;;10.02;5.30;;;4.80;99.90;;;;;;5073249;28;20633;-77
2021/01/09 11:27:55;;;;;;;7.00;4.25;;;4.40;99.90;;;;;;5073288;28;20317;-77
2021/01/09 11:30:21;;;;;;;8.48;4.70;;;4.20;99.90;;;;;;5072986;28;20231;-77
2021/01/09 11:32:48;;;;;;;11.80;6.13;;;4.20;99.90;;;;;;5072647;28;20207;-76
2021/01/09 11:35:15;;;;;;;12.27;5.72;;;4.20;99.90;;;;;;5072716;28;20314;-77
2021/01/09 11:37:41;;;;;;;10.23;5.63;;;4.10;99.90;;;;;;5072599;28;20209;-76
2021/01/09 11:40:08;;;;;;;8.90;5.45;;;4.20;99.90;;;;;;5073567;28;20333;-76
2021/01/09 11:42:34;;;;;;;12.73;5.80;;;4.30;99.90;;;;;;5074101;28;20617;-77
2021/01/09 11:45:01;;;;;;;13.90;5.85;;;4.20;99.90;;;;;;5072830;28;20195;-75
2021/01/09 11:47:27;;;;;;;8.68;4.80;;;4.20;99.90;;;;;;5073242;28;20213;-76
2021/01/09 11:49:54;;;;;;;6.10;3.70;;;4.20;99.90;;;;;;5073285;28;20314;-77
2021/01/09 11:52:21;;;;;;;10.13;5.60;;;4.30;99.90;;;;;;5073834;28;20205;-75
2021/01/09 11:54:47;;;;;;;10.00;5.40;;;4.50;99.90;;;;;;5073918;28;20315;-76
2021/01/09 11:57:13;;;;;;;10.38;5.53;;;4.30;99.90;;;;;;5073334;28;20216;-76
2021/01/09 11:59:39;;;;;;;10.32;5.10;;;4.30;99.90;;;;;;5075241;28;20319;-78
2021/01/09 12:02:07;;;;;;;16.98;7.35;;;4.40;99.90;;;;;;5074861;28;20214;-74
2021/01/09 12:04:33;;;;;;;15.30;8.77;;;4.60;99.90;;;;;;5074804;28;20270;-72
2021/01/09 12:07:01;;;;;;;11.48;6.60;;;4.70;99.90;;;;;;5078105;28;20198;-71
2021/01/09 12:09:27;;;;;;;11.52;5.35;;;4.60;99.90;;;;;;5077773;28;20257;-71
2021/01/09 12:11:54;;;;;;;9.48;4.47;;;4.60;99.90;;;;;;5077691;28;20339;-71
2021/01/09 12:14:21;;;;;;;10.45;4.93;;;4.60;99.90;;;;;;5077694;28;20249;-71
2021/01/09 12:16:47;;;;;;;8.85;4.55;;;4.70;99.90;;;;;;5077654;28;20202;-71
2021/01/09 12:19:14;;;;;;;10.10;4.90;;;4.70;99.90;;;;;;5077647;28;20222;-71
2021/01/09 12:21:40;;;;;;;9.98;5.00;;;4.80;99.90;;;;;;5077809;28;20203;-71
2021/01/09 12:24:09;;;;;;;8.75;5.05;;;4.90;99.90;;;;;;5077102;28;20226;-71
2021/01/09 12:26:36;;;;;;;11.13;4.70;;;4.90;99.90;;;;;;5077057;28;20210;-71
2021/01/09 12:29:02;;;;;;;8.85;5.15;;;5.00;99.90;;;;;;5076788;28;20314;-71
2021/01/09 12:31:32;;;;;;;8.57;3.75;;;5.00;99.90;;;;;;5077033;28;20305;-70
2021/01/09 12:34:00;;;;;;;8.40;4.22;;;5.00;99.90;;;;;;5076902;28;20209;-70
2021/01/09 12:36:26;;;;;;;9.13;4.35;;;4.10;99.70;;;;;;5076698;28;20210;-70
2021/01/09 12:38:52;;;;;;;6.13;3.17;;;3.80;99.90;;;;;;5076629;28;20314;-70
2021/01/09 12:41:20;;;;;;;9.63;4.65;;;3.70;99.90;;;;;;5076965;28;20271;-70
2021/01/09 12:43:46;;;;;;;11.40;4.80;;;3.80;99.90;;;;;;5076816;28;20203;-71
2021/01/09 12:46:13;;;;;;;11.98;4.70;;;3.90;99.90;;;;;;5076349;28;20285;-71
2021/01/09 12:48:39;;;;;;;10.55;4.95;;;4.00;99.90;;;;;;5076545;28;20715;-70
2021/01/09 12:51:06;;;;;;;10.60;4.35;;;4.20;99.90;;;;;;5076485;28;20341;-70
2021/01/09 12:53:32;;;;;;;9.02;4.38;;;4.20;99.90;;;;;;5076620;28;20632;-71